• Join FlightAware (Why Join?)
  • Login
  • US Flag 
02:09PM EDT


 

Airport Tracker/Info


-or-


 

Live Flight TrackerFlight Track Log ✈ FLG4262 ✈ 24-Nov-2013 ✈ KBGM - KDTW

Flight Track Log - Related Links

Times and Time Zones

All times are in EST time to prevent confusion due to time zone crossing. See the FLG4262 flight status page for this flight to view local times or setup timezone preferences in your user account.

Time Position Orientation Groundspeed Altitude Reporting Facility
EST Latitude Longitude Course Direction KTS MPH feet Rate Location/Type
05:25PM 42.2308 -76.1464 276° West 248 285 7,800  Level Cleveland Center
05:26PM 42.2522 -76.2194 292° West 223 257 11,000 2,400 Climbing Cleveland Center
05:27PM 42.2806 -76.3186 291° West 247 284 12,800 2,700 Climbing Cleveland Center
05:28PM 42.3097 -76.4181 292° West 274 315 16,700 2,940 Climbing Cleveland Center
05:29PM 42.3333 -76.5053 290° West 257 296 18,900 2,220 Climbing Cleveland Center
05:30PM 42.3589 -76.5922 292° West 251 289 21,300 2,580 Climbing Cleveland Center
05:31PM 42.3869 -76.6881 292° West 235 270 24,300 1,980 Climbing Cleveland Center
05:32PM 42.4089 -76.7636 291° West 222 255 25,500 1,020 Climbing Cleveland Center
05:33PM 42.4339 -76.8483 292° West 236 272 26,500 960 Climbing Cleveland Center
05:34PM 42.4594 -76.9389 291° West 254 292 27,500 960 Climbing Cleveland Center
05:36PM 42.4864 -77.0317 292° West 263 303 28,500 900 Climbing Cleveland Center
05:37PM 42.5119 -77.1278 290° West 271 312 29,400 660 Climbing Cleveland Center
05:38PM 42.5192 -77.2411 275° West 300 345 29,900 240 Climbing Cleveland Center
05:39PM 42.5297 -77.3842 276° West 318 366 30,000  Climbing Cleveland Center
05:40PM 42.5375 -77.5092 275° West 329 379 30,000  Level Cleveland Center
05:41PM 42.5467 -77.6392 276° West 342 394 30,000  Level Cleveland Center
05:42PM 42.5544 -77.7700 275° West 349 402 30,000  Level Cleveland Center
05:43PM 42.5633 -77.9133 275° West 358 412 30,000  Level Cleveland Center
05:44PM 42.5717 -78.0489 275° West 361 415 30,000  Level Cleveland Center
05:45PM 42.5797 -78.1850 275° West 362 417 30,000  Level Cleveland Center
05:46PM 42.5872 -78.3225 274° West 365 420 30,000  Level Cleveland Center
05:47PM 42.5978 -78.4869 275° West 367 422 30,000  Level Cleveland Center
05:48PM 42.6050 -78.6281 274° West 376 433 30,000  Level Cleveland Center
05:49PM 42.6139 -78.7656 275° West 367 422 30,000  Level Cleveland Center
05:50PM 42.6203 -78.9039 274° West 368 423 30,000  Level Cleveland Center
05:51PM 42.6283 -79.0425 275° West 368 423 30,000  Level Cleveland Center
05:52PM 42.6356 -79.1814 274° West 371 427 30,000  Level Cleveland Center
05:53PM 42.6436 -79.3458 274° West 367 422 30,000  Level Cleveland Center
05:54PM 42.6497 -79.4847 273° West 369 425 30,000 -60 Level Cleveland Center
05:55PM 42.6561 -79.6244 274° West 371 427 29,900 -540 Descending Cleveland Center
05:56PM 42.6631 -79.7667 274° West 377 434 28,900 -960 Descending Cleveland Center
05:57PM 42.6692 -79.9089 273° West 379 436 28,000 -480 Descending Cleveland Center
05:58PM 42.6736 -80.0661 272° West 375 432 28,000  Level Cleveland Center
05:59PM 42.6806 -80.2103 274° West 378 435 28,000  Level Cleveland Center
06:00PM 42.6864 -80.3539 273° West 378 435 28,000  Level Cleveland Center
06:01PM 42.6922 -80.4992 273° West 381 438 28,000  Level Cleveland Center
06:02PM 42.6964 -80.6444 272° West 383 441 28,000  Level Cleveland Center
06:03PM 42.6797 -80.8194 263° West 399 459 28,000  Level Cleveland Center
06:04PM 42.6667 -80.9686 263° West 395 455 28,000  Level Cleveland Center
06:05PM 42.6522 -81.1167 262° West 394 453 28,000  Level Cleveland Center
06:07PM 42.6386 -81.2658 263° West 395 455 28,000 -660 Level Cleveland Center
06:08PM 42.6244 -81.4139 263° West 394 453 26,700 -1,620 Descending Cleveland Center
06:09PM 42.6111 -81.5553 263° West 382 440 24,700 -1,860 Descending Cleveland Center
06:10PM 42.5972 -81.6906 262° West 366 421 22,900 -1,860 Descending Cleveland Center
06:11PM 42.5828 -81.8347 262° West 356 410 20,900 -1,860 Descending Cleveland Center
06:12PM 42.5697 -81.9658 262° West 352 405 19,100 -1,500 Descending Cleveland Center
06:13PM 42.5564 -82.0956 262° West 351 404 17,900 -1,560 Descending Cleveland Center
06:14PM 42.5422 -82.2311 262° West 348 400 16,200 -1,980 Descending Cleveland Center
06:14PM 42.5397 -82.2500 260° West 347 399 15,900 -1,800 Descending Cleveland Center
06:15PM 42.5292 -82.3625 263° West 346 398 14,400 -1,800 Descending Cleveland Center
06:15PM 42.5264 -82.3783 257° West 345 397 14,100 -1,800 Descending Cleveland Center
06:16PM 42.5167 -82.4797 263° West 342 394 12,800 -1,680 Descending Cleveland Center
06:16PM 42.5136 -82.5050 261° West 344 396 12,400 -1,500 Descending Cleveland Center
06:17PM 42.4894 -82.6008 251° West 345 397 11,300 -1,380 Descending Cleveland Center
06:17PM 42.4800 -82.6244 242° Southwest 344 396 11,000 -1,140 Descending Cleveland Center
06:18PM 42.4500 -82.7117 245° Southwest 327 376 10,200 -900 Descending Cleveland Center
06:18PM 42.4419 -82.7353 245° Southwest 329 379 10,100 -600 Descending Cleveland Center
06:19PM 42.4158 -82.8089 244° Southwest 251 289 9,600 -720 Descending Cleveland Center
06:19PM 42.4119 -82.8286 255° West 281 323 9,400 -1,140 Descending Cleveland Center
06:20PM 42.4003 -82.9056 258° West 254 292 8,500 -1,200 Descending Cleveland Center
06:20PM 42.3961 -82.9397 261° West 254 292 8,200 -1,020 Descending Cleveland Center
06:21PM 42.3953 -83.0011 269° West 243 280 7,500 -1,020 Descending Cleveland Center
06:21PM 42.3994 -83.0300 281° West 248 285 7,200 -1,020 Descending Cleveland Center
06:22PM 42.4075 -83.0903 280° West 243 280 6,500 -1,200 Descending Cleveland Center
06:22PM 42.4147 -83.1167 290° West 242 278 6,000 -1,440 Descending Cleveland Center
06:23PM 42.4158 -83.1733 272° West 224 258 5,100 -1,080 Descending Cleveland Center
06:23PM 42.4064 -83.1928 237° Southwest 226 260 4,900 -900 Descending Cleveland Center
06:24PM 42.3681 -83.2233 210° Southwest 174 200 4,100 -780 Descending Cleveland Center
06:24PM 42.3617 -83.2286 211° Southwest 194 223 4,100 -720 Level Cleveland Center
06:25PM 42.3303 -83.2519 209° Southwest 173 199 3,500 -900 Descending Cleveland Center
06:25PM 42.3200 -83.2608 213° Southwest 177 204 3,200 -1,020 Descending Cleveland Center
06:26PM 42.2858 -83.2853 208° Southwest 142 163 2,400 -1,080 Descending Cleveland Center
06:26PM 42.2750 -83.2950 214° Southwest 164 189 2,100 -780 Descending Cleveland Center
06:27PM 42.2569 -83.3067 206° Southwest 127 146 1,700 -720 Descending Cleveland Center
06:27PM 42.2447 -83.3175 213° Southwest 139 160 1,400 -720 Descending Cleveland Center
06:28PM 42.2256 -83.3303 206° Southwest 124 143 1,000 -300 Descending Cleveland Center
06:28PM 42.2158 -83.3375 209° Southwest 134 154 1,100 180 Climbing Cleveland Center
06:30PM 42.2000 -83.3500 211° Southwest  Level FlightAware Approximate
06:37PM 42.2124 -83.3534 211° Southwest  Level Estimated